Time;durP1;ratioP1;P1;durP2;ratioP2;P2;SDS_P1;SDS_P2;PMS_P1;PMS_P2;Temp;Humidity;BMP_temperature;BMP_pressure;BME280_temperature;BME280_humidity;BME280_pressure;Samples;Min_cycle;Max_cycle;Signal;HPM_P1;HPM_P2
2023/09/29 00:00:34;;;;;;;10.57;5.32;;;19.30;58.50;;;;;;5075573;28;20052;-66
2023/09/29 00:03:01;;;;;;;7.50;5.13;;;19.30;58.70;;;;;;5075635;28;20149;-66
2023/09/29 00:05:27;;;;;;;9.73;6.18;;;19.20;58.70;;;;;;5074331;28;20075;-66
2023/09/29 00:07:55;;;;;;;9.40;5.88;;;19.20;58.60;;;;;;5075590;28;20033;-65
2023/09/29 00:10:21;;;;;;;8.93;5.40;;;19.30;58.70;;;;;;5075291;28;20514;-66
2023/09/29 00:12:49;;;;;;;7.03;5.10;;;19.20;58.70;;;;;;5075830;28;20147;-65
2023/09/29 00:15:17;;;;;;;8.60;5.35;;;19.30;58.50;;;;;;5074657;28;20048;-65
2023/09/29 00:17:43;;;;;;;8.90;6.25;;;19.30;58.40;;;;;;5075691;28;20032;-65
2023/09/29 00:20:23;;;;;;;8.68;5.72;;;19.30;58.40;;;;;;5075241;28;20046;-64
2023/09/29 00:22:54;;;;;;;11.60;5.68;;;19.30;58.40;;;;;;5075478;28;20025;-65
2023/09/29 00:25:23;;;;;;;10.60;5.40;;;19.30;58.20;;;;;;5074607;28;20111;-65
2023/09/29 00:27:50;;;;;;;8.82;5.25;;;19.30;58.30;;;;;;5075049;28;20036;-65
2023/09/29 00:30:16;;;;;;;7.10;5.25;;;19.30;58.40;;;;;;5075355;28;20188;-66
2023/09/29 00:32:49;;;;;;;6.32;4.82;;;19.30;58.30;;;;;;5075069;28;20033;-66
2023/09/29 00:35:34;;;;;;;7.63;5.32;;;19.30;58.40;;;;;;5075075;28;20024;-66
2023/09/29 00:38:01;;;;;;;11.35;5.60;;;19.30;58.30;;;;;;5074947;28;20089;-66
2023/09/29 00:40:28;;;;;;;7.43;5.25;;;19.30;58.20;;;;;;5075025;28;20107;-65
2023/09/29 00:42:55;;;;;;;9.57;5.05;;;19.30;58.10;;;;;;5076312;28;20357;-65
2023/09/29 00:45:26;;;;;;;10.07;5.13;;;19.30;58.00;;;;;;5077863;28;20067;-65
2023/09/29 00:47:57;;;;;;;8.68;5.40;;;19.30;58.00;;;;;;5062353;28;20043;-65
2023/09/29 00:50:26;;;;;;;13.18;5.50;;;19.30;58.10;;;;;;5077891;28;20029;-67
2023/09/29 00:52:54;;;;;;;14.73;5.03;;;19.30;58.10;;;;;;5078993;28;20112;-67
2023/09/29 00:55:26;;;;;;;8.63;4.97;;;19.30;58.00;;;;;;5078578;28;20028;-66
2023/09/29 00:57:52;;;;;;;8.23;5.10;;;19.30;58.00;;;;;;5077669;28;20029;-65
2023/09/29 01:02:48;;;;;;;7.70;4.93;;;19.30;58.00;;;;;;5079097;28;20330;-67
2023/09/29 01:05:14;;;;;;;10.13;5.25;;;19.30;57.90;;;;;;5077832;28;20338;-66
2023/09/29 01:07:42;;;;;;;8.73;5.40;;;19.20;57.80;;;;;;5078468;28;20029;-66
2023/09/29 01:10:10;;;;;;;8.07;5.20;;;19.20;58.00;;;;;;5078386;28;20020;-66
2023/09/29 01:12:37;;;;;;;7.88;5.00;;;19.20;57.90;;;;;;5078610;28;20043;-66
2023/09/29 01:15:05;;;;;;;9.15;5.35;;;19.20;58.10;;;;;;5078213;28;20028;-66
2023/09/29 01:17:31;;;;;;;8.15;5.07;;;19.20;58.00;;;;;;5078184;28;20074;-65
2023/09/29 01:19:57;;;;;;;7.45;4.70;;;19.20;57.90;;;;;;5078748;28;20025;-65
2023/09/29 01:22:23;;;;;;;9.43;5.13;;;19.20;58.00;;;;;;5078988;28;20446;-67
2023/09/29 01:24:49;;;;;;;8.82;5.60;;;19.20;57.90;;;;;;5077200;28;20103;-65
2023/09/29 01:27:15;;;;;;;6.60;4.72;;;19.20;57.90;;;;;;5078073;28;20020;-66
2023/09/29 01:29:44;;;;;;;9.65;5.53;;;19.20;57.80;;;;;;5078617;28;20036;-65
2023/09/29 01:32:13;;;;;;;10.55;5.53;;;19.20;58.00;;;;;;5077936;28;20507;-66
2023/09/29 01:34:40;;;;;;;8.52;5.22;;;19.20;58.00;;;;;;5076923;28;20058;-66
2023/09/29 01:37:07;;;;;;;10.95;5.53;;;19.20;58.20;;;;;;5077632;28;20090;-65
2023/09/29 01:39:34;;;;;;;7.53;5.28;;;19.10;58.10;;;;;;5076899;28;20487;-66
2023/09/29 01:42:00;;;;;;;7.82;4.78;;;19.10;58.40;;;;;;5077759;28;20058;-65
2023/09/29 01:44:26;;;;;;;10.35;5.75;;;19.10;58.50;;;;;;5078236;28;20138;-66
2023/09/29 01:46:53;;;;;;;9.35;5.32;;;19.00;58.60;;;;;;5077705;28;20060;-66
2023/09/29 01:49:20;;;;;;;7.32;4.75;;;19.00;58.50;;;;;;5076725;28;20032;-66
2023/09/29 01:51:46;;;;;;;8.25;5.20;;;19.00;58.50;;;;;;5077571;28;20354;-66
2023/09/29 01:54:12;;;;;;;8.60;5.20;;;19.00;58.80;;;;;;5076456;28;20032;-65
2023/09/29 01:56:38;;;;;;;9.02;4.88;;;18.90;58.80;;;;;;5077537;28;20501;-66
2023/09/29 01:59:05;;;;;;;8.55;5.28;;;19.00;58.80;;;;;;5077370;28;20029;-65
2023/09/29 02:01:34;;;;;;;7.55;4.97;;;19.00;58.70;;;;;;5077762;28;20032;-66
2023/09/29 02:04:00;;;;;;;9.40;5.50;;;19.00;58.60;;;;;;5077378;28;20056;-65
2023/09/29 02:06:27;;;;;;;8.20;5.60;;;19.00;58.70;;;;;;5077298;28;20031;-66
2023/09/29 02:08:53;;;;;;;8.43;5.25;;;19.00;58.80;;;;;;5077284;28;20038;-66
2023/09/29 02:11:18;;;;;;;8.65;5.30;;;19.00;58.70;;;;;;5077808;28;20029;-67
2023/09/29 02:13:44;;;;;;;10.70;5.10;;;19.00;58.80;;;;;;5077498;28;20029;-65
2023/09/29 02:16:12;;;;;;;8.77;5.35;;;18.90;59.00;;;;;;5077421;28;20024;-67
2023/09/29 02:18:38;;;;;;;8.27;4.90;;;18.90;59.20;;;;;;5076086;28;20361;-65
2023/09/29 02:21:06;;;;;;;8.55;4.88;;;18.90;58.90;;;;;;5077383;28;20043;-65
2023/09/29 02:23:33;;;;;;;7.72;5.03;;;18.90;59.00;;;;;;5077292;28;20032;-65
2023/09/29 02:26:00;;;;;;;7.78;5.45;;;18.90;59.00;;;;;;5077161;28;20021;-65
2023/09/29 02:28:30;;;;;;;8.00;5.18;;;18.90;58.90;;;;;;5076339;28;20040;-65
2023/09/29 02:31:02;;;;;;;10.48;5.72;;;18.90;58.90;;;;;;5076851;28;20029;-66
2023/09/29 02:33:29;;;;;;;7.97;5.65;;;18.90;58.70;;;;;;5077092;28;20043;-65
2023/09/29 02:35:56;;;;;;;6.72;5.15;;;19.00;58.60;;;;;;5076494;28;20040;-66
2023/09/29 02:38:23;;;;;;;7.45;5.10;;;19.00;58.70;;;;;;5076616;28;20483;-65
2023/09/29 02:40:50;;;;;;;7.32;5.35;;;19.00;58.50;;;;;;5076932;28;20039;-65
2023/09/29 02:43:16;;;;;;;10.82;5.38;;;19.00;58.50;;;;;;5076613;28;20432;-65
2023/09/29 02:45:42;;;;;;;8.45;6.10;;;18.90;58.40;;;;;;5076474;28;20345;-66
2023/09/29 02:48:10;;;;;;;10.18;5.50;;;19.00;58.50;;;;;;5076519;28;20035;-66
2023/09/29 02:50:36;;;;;;;11.07;6.47;;;19.00;58.50;;;;;;5076458;28;20020;-65
2023/09/29 02:53:05;;;;;;;8.35;5.57;;;18.90;58.50;;;;;;5077001;28;20120;-65
2023/09/29 02:55:31;;;;;;;7.72;4.95;;;18.90;58.70;;;;;;5076598;28;20028;-65
2023/09/29 02:58:00;;;;;;;7.47;4.88;;;18.90;58.80;;;;;;5076566;28;20024;-66
2023/09/29 03:00:27;;;;;;;7.55;5.20;;;18.90;58.80;;;;;;5076301;28;20024;-66
2023/09/29 03:02:56;;;;;;;6.97;4.90;;;18.90;58.80;;;;;;5076523;28;20036;-66
2023/09/29 03:05:23;;;;;;;8.63;5.15;;;18.90;58.80;;;;;;5076706;28;20020;-65
2023/09/29 03:07:50;;;;;;;7.25;4.88;;;18.90;58.70;;;;;;5076165;28;20089;-65
2023/09/29 03:10:17;;;;;;;7.70;5.55;;;18.90;58.90;;;;;;5076096;28;20069;-66
2023/09/29 03:12:44;;;;;;;7.95;5.13;;;18.90;58.90;;;;;;5075083;28;20073;-65
2023/09/29 03:15:15;;;;;;;8.77;4.80;;;18.90;59.00;;;;;;5075940;28;20025;-66
2023/09/29 03:17:42;;;;;;;9.20;5.45;;;18.90;58.90;;;;;;5075887;28;20021;-66
2023/09/29 03:20:10;;;;;;;8.48;5.95;;;18.90;59.00;;;;;;5075075;28;20362;-65
2023/09/29 03:22:40;;;;;;;7.43;5.30;;;19.00;59.00;;;;;;5075857;28;20113;-65
2023/09/29 03:25:06;;;;;;;6.88;4.80;;;19.00;58.80;;;;;;5075762;28;20342;-66
2023/09/29 03:27:34;;;;;;;9.18;5.80;;;18.90;58.80;;;;;;5076038;28;20166;-67
2023/09/29 03:30:01;;;;;;;11.38;5.95;;;19.00;58.90;;;;;;5074801;28;20028;-67
2023/09/29 03:32:29;;;;;;;7.60;5.55;;;19.00;58.80;;;;;;5075989;28;20099;-66
2023/09/29 03:34:55;;;;;;;9.07;4.60;;;18.90;58.60;;;;;;5058078;28;20484;-65
2023/09/29 03:37:21;;;;;;;7.60;5.00;;;19.00;58.60;;;;;;5075422;28;20052;-65
2023/09/29 03:39:48;;;;;;;9.20;5.20;;;18.90;58.50;;;;;;5075811;28;20032;-65
2023/09/29 03:42:16;;;;;;;8.35;5.43;;;18.90;58.50;;;;;;5075531;28;20032;-66
2023/09/29 03:44:44;;;;;;;8.25;5.32;;;19.00;58.50;;;;;;5074907;28;20066;-65
2023/09/29 03:47:12;;;;;;;8.05;4.97;;;18.90;58.50;;;;;;5075513;28;20017;-65
2023/09/29 03:49:38;;;;;;;7.90;5.28;;;18.90;58.50;;;;;;5075500;28;20040;-65
2023/09/29 03:52:08;;;;;;;7.93;4.93;;;18.90;58.40;;;;;;5075499;28;20107;-66
2023/09/29 03:54:35;;;;;;;7.70;4.65;;;18.90;58.50;;;;;;5075357;28;20503;-66
2023/09/29 03:57:04;;;;;;;8.95;5.18;;;18.90;58.50;;;;;;5075738;28;20036;-66
2023/09/29 03:59:30;;;;;;;6.90;4.95;;;18.90;58.50;;;;;;5075593;28;20084;-65
2023/09/29 04:01:56;;;;;;;7.70;4.80;;;18.90;58.60;;;;;;5075902;28;20112;-65
2023/09/29 04:04:22;;;;;;;11.90;5.80;;;18.90;58.60;;;;;;5075218;28;20503;-65
2023/09/29 04:06:48;;;;;;;7.30;5.20;;;18.90;58.90;;;;;;5074416;28;20029;-65
2023/09/29 04:09:14;;;;;;;7.68;5.63;;;18.90;58.80;;;;;;5075326;28;20032;-65
2023/09/29 04:11:40;;;;;;;7.05;5.03;;;18.80;58.70;;;;;;5074341;28;20353;-64
2023/09/29 04:14:06;;;;;;;8.27;5.40;;;18.80;58.70;;;;;;5075560;28;20024;-66
2023/09/29 04:16:32;;;;;;;9.80;5.13;;;18.80;58.80;;;;;;5075172;28;20119;-64
2023/09/29 04:18:58;;;;;;;8.18;5.07;;;18.80;58.90;;;;;;5078428;28;20103;-66
2023/09/29 04:21:24;;;;;;;8.73;5.60;;;18.70;59.10;;;;;;5079361;28;20066;-65
2023/09/29 04:23:50;;;;;;;9.65;5.88;;;18.70;59.30;;;;;;5079351;28;20048;-66
2023/09/29 04:26:19;;;;;;;9.45;5.55;;;18.70;59.40;;;;;;5079220;28;20091;-66
2023/09/29 04:28:49;;;;;;;10.63;6.13;;;18.70;59.40;;;;;;5079187;28;20109;-66
2023/09/29 04:31:16;;;;;;;9.23;5.72;;;18.70;59.40;;;;;;5078237;28;20142;-66
2023/09/29 04:33:43;;;;;;;7.85;5.60;;;18.70;59.40;;;;;;5079145;28;20446;-64
2023/09/29 04:36:09;;;;;;;8.60;5.50;;;18.60;59.40;;;;;;5078831;28;20045;-66
2023/09/29 04:38:36;;;;;;;9.60;5.28;;;18.60;59.50;;;;;;5079235;28;20032;-65
2023/09/29 04:41:04;;;;;;;8.05;5.45;;;18.60;59.50;;;;;;5078942;28;20546;-66
2023/09/29 04:43:31;;;;;;;10.25;5.70;;;18.60;59.60;;;;;;5078903;28;20029;-65
2023/09/29 04:45:57;;;;;;;9.15;5.88;;;18.50;59.60;;;;;;5077868;28;20021;-67
2023/09/29 04:48:23;;;;;;;8.30;5.68;;;18.50;59.80;;;;;;5079415;28;20024;-64
2023/09/29 04:50:49;;;;;;;9.43;5.53;;;18.50;60.00;;;;;;5079370;28;20104;-65
2023/09/29 04:53:16;;;;;;;9.25;5.88;;;18.40;59.80;;;;;;5078754;28;20029;-65
2023/09/29 04:55:41;;;;;;;7.85;5.75;;;18.40;59.90;;;;;;5077704;28;20039;-65
2023/09/29 04:58:09;;;;;;;9.90;5.45;;;18.40;60.00;;;;;;5078624;28;20024;-66
2023/09/29 05:00:36;;;;;;;8.05;5.43;;;18.40;60.10;;;;;;5061278;28;20373;-66
2023/09/29 05:03:02;;;;;;;7.75;5.28;;;18.40;59.80;;;;;;5078556;28;20399;-65
2023/09/29 05:05:28;;;;;;;8.30;5.00;;;18.40;60.00;;;;;;5078459;28;20448;-65
2023/09/29 05:07:54;;;;;;;6.60;4.70;;;18.40;60.10;;;;;;5077531;28;20055;-65
2023/09/29 05:10:20;;;;;;;10.48;5.80;;;18.40;60.00;;;;;;5078410;28;20056;-66
2023/09/29 05:12:46;;;;;;;9.45;5.15;;;18.40;60.10;;;;;;5077453;28;20101;-65
2023/09/29 05:15:12;;;;;;;8.52;5.72;;;18.40;60.00;;;;;;5078517;28;20020;-65
2023/09/29 05:17:38;;;;;;;9.63;5.72;;;18.40;60.10;;;;;;5078485;28;20031;-66
2023/09/29 05:20:05;;;;;;;10.02;6.05;;;18.40;60.00;;;;;;5077286;28;20056;-67
2023/09/29 05:22:31;;;;;;;8.18;5.20;;;18.50;60.00;;;;;;5077208;28;20028;-67
2023/09/29 05:25:01;;;;;;;7.53;4.78;;;18.50;60.20;;;;;;5078051;28;20131;-66
2023/09/29 05:27:31;;;;;;;8.55;5.03;;;18.50;60.10;;;;;;5077919;28;20031;-65
2023/09/29 05:29:58;;;;;;;8.70;5.93;;;18.50;60.30;;;;;;5077048;28;20036;-65
2023/09/29 05:32:24;;;;;;;8.63;5.32;;;18.50;60.30;;;;;;5078287;28;20107;-66
2023/09/29 05:34:51;;;;;;;8.68;5.63;;;18.60;60.20;;;;;;5078483;28;20017;-66
2023/09/29 05:37:17;;;;;;;7.95;4.45;;;18.60;60.10;;;;;;5077619;28;20037;-66
2023/09/29 05:39:43;;;;;;;9.48;5.28;;;18.70;59.80;;;;;;5060286;28;20120;-66
2023/09/29 05:42:11;;;;;;;7.93;5.20;;;18.80;60.00;;;;;;5077855;28;20020;-66
2023/09/29 05:44:37;;;;;;;8.90;5.10;;;18.90;59.90;;;;;;5077994;28;20418;-66
2023/09/29 05:47:03;;;;;;;13.65;6.05;;;19.00;59.80;;;;;;5076911;28;20025;-65
2023/09/29 05:49:30;;;;;;;8.43;5.47;;;19.20;59.90;;;;;;5077716;28;20052;-66
2023/09/29 05:51:57;;;;;;;8.60;5.43;;;19.40;59.80;;;;;;5077953;28;20102;-66
2023/09/29 05:54:23;;;;;;;11.13;6.18;;;19.70;59.50;;;;;;5077798;28;20028;-66
2023/09/29 05:56:50;;;;;;;13.52;6.53;;;20.00;59.10;;;;;;5077845;28;20024;-65
2023/09/29 05:59:16;;;;;;;9.20;5.47;;;20.30;58.70;;;;;;5077743;28;20040;-64
2023/09/29 06:01:42;;;;;;;9.55;5.80;;;20.60;58.10;;;;;;5078052;28;20120;-66
2023/09/29 06:04:08;;;;;;;9.88;5.60;;;20.90;57.80;;;;;;5077515;28;20036;-65
2023/09/29 06:06:34;;;;;;;10.82;5.65;;;21.30;57.20;;;;;;5076369;28;20154;-65
2023/09/29 06:09:00;;;;;;;9.25;5.68;;;21.60;56.60;;;;;;5077392;28;20111;-66
2023/09/29 06:11:26;;;;;;;9.00;5.80;;;21.90;56.00;;;;;;5077515;28;20102;-65
2023/09/29 06:13:52;;;;;;;10.93;5.80;;;22.20;55.40;;;;;;5077820;28;20422;-65
2023/09/29 06:16:18;;;;;;;11.02;6.00;;;22.50;54.70;;;;;;5076173;28;20025;-65
2023/09/29 06:18:45;;;;;;;9.00;5.10;;;22.80;54.40;;;;;;5077640;28;20028;-65
2023/09/29 06:21:10;;;;;;;9.38;5.78;;;23.00;53.70;;;;;;5077139;28;20020;-65
2023/09/29 06:23:36;;;;;;;8.27;5.97;;;23.30;53.10;;;;;;5077092;28;20017;-65
2023/09/29 06:26:03;;;;;;;8.88;5.38;;;23.60;52.50;;;;;;5075992;28;20030;-65
2023/09/29 06:28:30;;;;;;;10.45;5.78;;;23.80;51.80;;;;;;5076996;28;20054;-65
2023/09/29 06:30:56;;;;;;;9.15;5.07;;;24.00;51.40;;;;;;5076877;28;20025;-66
2023/09/29 06:33:23;;;;;;;8.70;5.32;;;24.10;50.80;;;;;;5075927;28;20032;-66
2023/09/29 06:35:49;;;;;;;12.07;5.93;;;24.30;50.50;;;;;;5075602;28;20048;-65
2023/09/29 06:38:15;;;;;;;8.77;5.57;;;24.40;50.00;;;;;;5076714;28;20082;-66
2023/09/29 06:40:43;;;;;;;11.40;5.97;;;24.50;49.60;;;;;;5075281;28;20099;-66
2023/09/29 06:43:10;;;;;;;9.60;6.00;;;24.60;49.20;;;;;;5077263;28;20025;-66
2023/09/29 06:45:40;;;;;;;9.73;5.80;;;24.60;49.00;;;;;;5075682;28;20013;-65
2023/09/29 06:48:06;;;;;;;10.50;6.78;;;24.70;48.80;;;;;;5076544;28;20028;-65
2023/09/29 06:50:32;;;;;;;10.15;6.32;;;24.80;48.30;;;;;;5076540;28;20035;-65
2023/09/29 06:52:58;;;;;;;9.82;6.25;;;24.90;48.30;;;;;;5076713;28;20029;-64
2023/09/29 06:55:24;;;;;;;12.77;6.63;;;24.90;48.30;;;;;;5076351;28;20036;-66
2023/09/29 06:57:50;;;;;;;9.30;5.60;;;25.00;48.10;;;;;;5076324;28;20029;-65
2023/09/29 07:00:17;;;;;;;9.50;5.65;;;25.10;48.10;;;;;;5076575;28;20027;-65
2023/09/29 07:02:43;;;;;;;8.90;6.05;;;25.20;47.90;;;;;;5076820;28;20086;-65
2023/09/29 07:05:09;;;;;;;10.07;5.75;;;25.30;47.60;;;;;;5076246;28;20027;-65
2023/09/29 07:07:36;;;;;;;8.57;5.70;;;25.50;47.40;;;;;;5074893;28;20100;-66
2023/09/29 07:10:02;;;;;;;12.48;6.20;;;25.50;46.80;;;;;;5076123;28;20020;-66
2023/09/29 07:12:28;;;;;;;9.55;5.97;;;25.50;46.40;;;;;;5076142;28;20021;-65
2023/09/29 07:14:54;;;;;;;9.98;5.93;;;25.50;46.20;;;;;;5076518;28;20023;-65
2023/09/29 07:17:20;;;;;;;11.32;5.80;;;25.50;45.70;;;;;;5076052;28;20472;-64
2023/09/29 07:19:46;;;;;;;10.23;5.90;;;25.50;46.00;;;;;;5075956;28;20020;-65
2023/09/29 07:22:12;;;;;;;8.38;5.32;;;25.60;46.10;;;;;;5076183;28;20028;-65
2023/09/29 07:24:41;;;;;;;7.85;5.75;;;25.70;45.90;;;;;;5075825;28;20020;-66
2023/09/29 07:27:08;;;;;;;9.48;6.05;;;25.70;45.80;;;;;;5075856;28;20090;-65
2023/09/29 07:29:34;;;;;;;7.43;5.40;;;25.80;45.30;;;;;;5075525;28;20119;-65
2023/09/29 07:32:01;;;;;;;13.65;5.80;;;25.80;45.30;;;;;;5076314;28;20430;-66
2023/09/29 07:34:29;;;;;;;8.57;5.72;;;25.90;45.00;;;;;;5076226;28;20021;-66
2023/09/29 07:36:55;;;;;;;10.98;6.13;;;25.90;45.10;;;;;;5074541;28;20052;-66
2023/09/29 07:39:21;;;;;;;14.32;5.93;;;25.90;45.00;;;;;;5076097;28;20400;-65
2023/09/29 07:41:48;;;;;;;7.72;5.38;;;25.90;44.80;;;;;;5074709;28;20028;-66
2023/09/29 07:44:14;;;;;;;10.07;6.10;;;26.00;44.70;;;;;;5075796;28;20346;-66
2023/09/29 07:46:40;;;;;;;8.48;5.82;;;26.00;44.60;;;;;;5075836;28;20021;-66
2023/09/29 07:49:06;;;;;;;10.75;5.85;;;26.10;43.80;;;;;;5075589;28;20023;-65
2023/09/29 07:51:32;;;;;;;11.75;5.70;;;26.10;44.10;;;;;;5074263;28;20024;-65
2023/09/29 07:54:00;;;;;;;10.18;5.55;;;26.00;43.80;;;;;;5075004;28;20020;-66
2023/09/29 07:56:26;;;;;;;9.98;5.63;;;26.10;43.70;;;;;;5075425;28;20032;-65
2023/09/29 07:58:54;;;;;;;11.13;5.75;;;26.10;43.80;;;;;;5075400;28;20099;-66
2023/09/29 08:01:19;;;;;;;7.53;5.20;;;26.10;43.80;;;;;;5074470;28;20031;-66
2023/09/29 08:03:46;;;;;;;12.20;5.82;;;26.10;44.00;;;;;;5075946;28;20021;-64
2023/09/29 08:06:14;;;;;;;10.25;5.22;;;26.20;43.70;;;;;;5075381;28;20369;-66
2023/09/29 08:08:40;;;;;;;11.05;5.88;;;26.20;43.50;;;;;;5075277;28;20406;-66
2023/09/29 08:11:06;;;;;;;10.77;5.80;;;26.30;43.20;;;;;;5075553;28;20036;-65
2023/09/29 08:13:32;;;;;;;8.70;5.43;;;26.20;43.20;;;;;;5075324;28;20031;-66
2023/09/29 08:15:58;;;;;;;8.10;5.68;;;26.30;43.50;;;;;;5075647;28;20028;-66
2023/09/29 08:18:23;;;;;;;10.07;5.60;;;26.30;43.30;;;;;;5075434;28;20082;-66
2023/09/29 08:20:55;;;;;;;9.00;5.32;;;26.40;42.80;;;;;;5075488;28;20039;-65
2023/09/29 08:23:22;;;;;;;6.57;4.95;;;26.40;43.40;;;;;;5075754;28;20104;-65
2023/09/29 08:25:48;;;;;;;9.15;6.00;;;26.40;43.50;;;;;;5075094;28;20461;-66
2023/09/29 08:28:14;;;;;;;7.10;4.55;;;26.50;43.00;;;;;;5074178;28;20030;-65
2023/09/29 08:30:40;;;;;;;10.57;5.32;;;26.50;43.10;;;;;;5075745;28;20043;-67
2023/09/29 08:33:07;;;;;;;10.50;5.75;;;26.60;42.90;;;;;;5075643;28;20025;-66
2023/09/29 08:35:33;;;;;;;6.90;4.70;;;26.60;42.30;;;;;;5075049;28;20036;-65
2023/09/29 08:37:59;;;;;;;9.65;5.38;;;26.60;42.40;;;;;;5075311;28;20039;-67
2023/09/29 08:40:25;;;;;;;9.77;5.05;;;26.60;42.10;;;;;;5075080;28;20066;-66
2023/09/29 08:42:51;;;;;;;7.78;5.35;;;26.60;42.20;;;;;;5075055;28;20438;-66
2023/09/29 08:45:19;;;;;;;7.13;5.22;;;26.60;42.00;;;;;;5075223;28;20346;-65
2023/09/29 08:47:52;;;;;;;9.52;5.07;;;26.70;42.20;;;;;;5073998;28;20036;-65
2023/09/29 08:50:21;;;;;;;11.05;5.50;;;26.80;41.10;;;;;;5074019;28;20073;-66
2023/09/29 08:52:49;;;;;;;8.82;5.30;;;26.80;41.20;;;;;;5074416;28;20032;-66
2023/09/29 08:55:19;;;;;;;9.57;4.93;;;26.90;41.40;;;;;;5073912;28;20067;-65
2023/09/29 08:57:45;;;;;;;6.90;4.47;;;26.90;41.60;;;;;;5073643;28;20021;-65
2023/09/29 09:00:12;;;;;;;8.32;5.07;;;26.90;41.90;;;;;;5074856;28;20032;-65
2023/09/29 09:02:45;;;;;;;12.10;5.88;;;27.00;41.20;;;;;;5074829;28;20505;-65
2023/09/29 09:05:12;;;;;;;;;;;27.00;41.10;;;;;;5077823;28;20046;-65
2023/09/29 09:07:43;;;;;;;10.77;4.85;;;27.00;40.60;;;;;;5078528;28;19911;-65
2023/09/29 09:10:11;;;;;;;9.25;5.05;;;27.10;40.50;;;;;;5078400;28;20036;-66
2023/09/29 09:12:40;;;;;;;10.77;5.07;;;27.20;40.50;;;;;;5077864;28;20021;-65
2023/09/29 09:15:08;;;;;;;9.77;5.30;;;27.10;40.60;;;;;;5077320;28;20020;-65
2023/09/29 09:17:35;;;;;;;9.68;4.47;;;27.20;39.70;;;;;;5078634;28;20063;-65
2023/09/29 09:20:02;;;;;;;7.60;4.80;;;27.20;40.10;;;;;;5060884;28;20020;-66
2023/09/29 09:22:32;;;;;;;7.57;4.80;;;27.20;39.30;;;;;;5060772;28;20434;-66
2023/09/29 09:25:02;;;;;;;11.50;5.50;;;27.10;38.90;;;;;;5077174;28;20505;-65
2023/09/29 09:27:43;;;;;;;12.20;5.20;;;27.00;37.40;;;;;;5077201;28;20056;-65
2023/09/29 09:30:23;;;;;;;9.18;4.70;;;26.90;38.40;;;;;;5078076;28;20032;-66
2023/09/29 09:32:49;;;;;;;9.88;5.30;;;26.90;36.80;;;;;;5078026;28;20025;-65
2023/09/29 09:35:26;;;;;;;8.15;4.88;;;26.90;36.80;;;;;;5077057;28;20499;-66
2023/09/29 09:37:52;;;;;;;9.38;4.97;;;27.00;37.50;;;;;;5077061;28;20454;-65
2023/09/29 09:40:19;;;;;;;8.57;4.80;;;27.00;36.60;;;;;;5078209;28;20028;-66
2023/09/29 09:42:46;;;;;;;8.10;4.57;;;26.90;36.20;;;;;;5076502;28;20036;-66
2023/09/29 09:45:13;;;;;;;8.90;5.32;;;26.90;36.90;;;;;;5075603;28;20115;-66
2023/09/29 09:47:41;;;;;;;9.50;5.13;;;26.90;37.30;;;;;;5076819;28;20028;-66
2023/09/29 09:50:11;;;;;;;11.13;4.82;;;26.90;37.40;;;;;;5077704;28;20116;-66
2023/09/29 09:52:38;;;;;;;11.40;5.47;;;26.90;37.70;;;;;;5078007;28;20075;-66
2023/09/29 09:55:15;;;;;;;9.13;5.10;;;26.90;37.10;;;;;;5077803;28;20031;-66
2023/09/29 09:57:50;;;;;;;10.73;5.30;;;26.90;38.10;;;;;;5076497;28;20081;-65
2023/09/29 10:00:16;;;;;;;6.18;4.63;;;26.90;38.60;;;;;;5077636;28;20027;-65
2023/09/29 10:02:48;;;;;;;6.38;4.45;;;27.00;38.70;;;;;;5077044;28;20024;-66
2023/09/29 10:05:31;;;;;;;7.70;4.73;;;27.10;38.80;;;;;;5076461;28;20025;-66
2023/09/29 10:08:05;;;;;;;9.32;4.93;;;27.20;38.50;;;;;;5077761;28;20047;-66
2023/09/29 10:10:39;;;;;;;12.25;4.80;;;27.20;36.10;;;;;;5077391;28;20402;-66
2023/09/29 10:13:11;;;;;;;9.13;4.50;;;27.20;36.00;;;;;;5076429;28;20017;-65
2023/09/29 10:15:38;;;;;;;8.95;4.68;;;27.10;36.30;;;;;;5076579;28;20487;-66
2023/09/29 10:18:13;;;;;;;8.80;4.45;;;27.20;36.30;;;;;;5076187;28;20040;-66
2023/09/29 10:20:39;;;;;;;6.93;4.82;;;27.20;35.70;;;;;;5077245;28;20100;-65
2023/09/29 10:23:15;;;;;;;7.13;4.40;;;27.20;35.10;;;;;;5077700;28;20016;-66
2023/09/29 10:25:44;;;;;;;9.05;4.70;;;27.20;36.10;;;;;;5077196;28;20031;-65
2023/09/29 10:28:12;;;;;;;7.72;4.80;;;27.20;35.80;;;;;;5077572;28;20158;-66
2023/09/29 10:30:40;;;;;;;7.57;4.82;;;27.10;35.80;;;;;;5077258;28;20035;-65
2023/09/29 10:33:13;;;;;;;8.43;4.65;;;27.00;35.30;;;;;;5059336;28;20025;-65
2023/09/29 10:35:47;;;;;;;7.43;4.35;;;27.00;34.70;;;;;;5076867;28;20173;-65
2023/09/29 10:38:23;;;;;;;8.05;4.55;;;27.00;35.40;;;;;;5077295;28;20109;-65
2023/09/29 10:40:50;;;;;;;10.70;4.50;;;27.10;35.30;;;;;;5076744;28;20021;-65
2023/09/29 10:43:23;;;;;;;7.05;4.57;;;27.10;35.40;;;;;;5075876;28;20020;-65
2023/09/29 10:45:50;;;;;;;9.57;4.53;;;27.20;35.60;;;;;;5076581;28;20461;-65
2023/09/29 10:48:23;;;;;;;8.98;4.53;;;27.30;35.10;;;;;;5076855;28;20024;-65
2023/09/29 10:50:50;;;;;;;8.30;4.15;;;27.30;35.30;;;;;;5075761;28;20033;-65
2023/09/29 10:53:23;;;;;;;9.48;4.13;;;27.40;35.10;;;;;;5076809;28;20021;-65
2023/09/29 10:55:51;;;;;;;7.85;4.30;;;27.40;35.40;;;;;;5075762;28;20040;-65
2023/09/29 10:58:19;;;;;;;13.48;4.93;;;27.40;35.30;;;;;;5076368;28;20112;-66
2023/09/29 11:00:47;;;;;;;8.40;4.97;;;27.40;34.90;;;;;;5076379;28;20507;-66
2023/09/29 11:03:18;;;;;;;9.52;5.07;;;27.50;34.70;;;;;;5076305;28;20563;-64
2023/09/29 11:05:55;;;;;;;5.65;4.10;;;27.40;35.00;;;;;;5076474;28;20028;-67
2023/09/29 11:08:35;;;;;;;7.88;4.18;;;27.40;34.90;;;;;;5075885;28;20111;-67
2023/09/29 11:11:03;;;;;;;5.47;3.95;;;27.30;34.40;;;;;;5076510;28;20025;-66
2023/09/29 11:13:30;;;;;;;5.70;4.18;;;27.30;35.20;;;;;;5076127;28;20028;-65
2023/09/29 11:15:58;;;;;;;6.63;4.35;;;27.30;35.30;;;;;;5076260;28;20024;-66
2023/09/29 11:18:26;;;;;;;6.38;4.47;;;27.40;35.30;;;;;;5075900;28;20036;-65
2023/09/29 11:23:51;;;;;;;8.05;4.18;;;27.20;35.60;;;;;;5073917;28;20020;-66
2023/09/29 11:26:17;;;;;;;7.20;4.38;;;27.20;35.80;;;;;;5075638;28;20032;-65
2023/09/29 11:28:48;;;;;;;13.57;5.13;;;27.10;35.80;;;;;;5074893;28;20058;-65
2023/09/29 11:31:17;;;;;;;8.55;5.20;;;27.20;35.60;;;;;;5074913;28;20036;-65
2023/09/29 11:33:48;;;;;;;9.85;6.00;;;27.30;35.00;;;;;;5076301;28;20385;-66
2023/09/29 11:36:15;;;;;;;10.55;5.60;;;27.40;35.00;;;;;;5074716;28;20055;-67
2023/09/29 11:38:41;;;;;;;9.95;5.60;;;27.50;34.90;;;;;;5074729;28;20067;-65
2023/09/29 11:41:08;;;;;;;9.55;5.80;;;27.50;35.20;;;;;;5076223;28;20078;-66
2023/09/29 11:43:35;;;;;;;8.80;5.57;;;27.50;35.30;;;;;;5075922;28;20468;-65
2023/09/29 11:46:03;;;;;;;13.98;5.97;;;27.50;35.50;;;;;;5075697;28;20025;-66
2023/09/29 11:48:29;;;;;;;10.07;6.43;;;27.50;35.60;;;;;;5075520;28;20070;-65
2023/09/29 11:50:55;;;;;;;12.73;7.30;;;27.50;35.40;;;;;;5076108;28;20032;-65
2023/09/29 11:53:21;;;;;;;9.55;6.95;;;27.60;35.20;;;;;;5074529;28;20357;-66
2023/09/29 11:55:48;;;;;;;9.90;6.65;;;27.60;35.30;;;;;;5075410;28;20020;-65
2023/09/29 11:58:14;;;;;;;12.63;6.57;;;27.70;34.90;;;;;;5075919;28;20090;-66
2023/09/29 12:00:41;;;;;;;14.07;6.75;;;27.70;34.30;;;;;;5075960;28;20024;-65
2023/09/29 12:03:08;;;;;;;10.77;6.28;;;27.80;34.70;;;;;;5075976;28;20054;-65
2023/09/29 12:05:37;;;;;;;9.93;6.00;;;27.80;34.80;;;;;;5074234;28;20039;-65
2023/09/29 12:08:04;;;;;;;8.50;6.15;;;27.80;34.30;;;;;;5075660;28;20024;-66
2023/09/29 12:10:31;;;;;;;12.75;6.47;;;27.90;34.50;;;;;;5075884;28;20021;-66
2023/09/29 12:13:04;;;;;;;11.40;6.35;;;27.90;33.40;;;;;;5075313;28;20047;-66
2023/09/29 12:15:32;;;;;;;9.02;5.97;;;27.90;34.00;;;;;;5075085;28;20024;-66
2023/09/29 12:18:00;;;;;;;9.25;5.90;;;27.90;34.10;;;;;;5075516;28;20044;-67
2023/09/29 12:20:28;;;;;;;8.00;5.35;;;27.90;34.60;;;;;;5075522;28;20103;-69
2023/09/29 12:23:06;;;;;;;13.73;6.10;;;27.90;34.70;;;;;;5075297;28;20024;-65
2023/09/29 12:25:36;;;;;;;16.15;5.90;;;27.90;34.90;;;;;;5075116;28;20029;-68
2023/09/29 12:28:03;;;;;;;10.80;5.82;;;28.00;35.00;;;;;;5075180;28;20099;-66
2023/09/29 12:30:30;;;;;;;10.82;5.70;;;28.10;35.30;;;;;;5075442;28;20013;-64
2023/09/29 12:33:03;;;;;;;10.65;5.90;;;28.20;35.30;;;;;;5075434;28;20048;-64
2023/09/29 12:35:29;;;;;;;;;;;28.20;35.30;;;;;;5074315;28;20071;-69
2023/09/29 12:37:55;;;;;;;6.93;5.28;;;28.30;33.90;;;;;;5075163;28;19908;-69
2023/09/29 12:40:22;;;;;;;9.18;4.90;;;28.30;35.00;;;;;;5078933;28;20122;-69
2023/09/29 12:42:50;;;;;;;9.45;4.68;;;28.30;34.80;;;;;;5093710;28;20081;-68
2023/09/29 12:45:20;;;;;;;6.95;4.55;;;28.30;34.80;;;;;;5098179;28;20049;-67
2023/09/29 12:47:50;;;;;;;5.90;4.32;;;28.30;34.90;;;;;;5099129;28;20024;-66
2023/09/29 12:50:40;;;;;;;6.53;4.13;;;28.40;35.20;;;;;;5099159;28;20365;-64
2023/09/29 12:53:07;;;;;;;7.07;4.53;;;28.40;35.30;;;;;;5099152;28;20049;-64